Time;durP1;ratioP1;P1;durP2;ratioP2;P2;SDS_P1;SDS_P2;PMS_P1;PMS_P2;Temp;Humidity;BMP_temperature;BMP_pressure;BME280_temperature;BME280_humidity;BME280_pressure;Samples;Min_cycle;Max_cycle;Signal;HPM_P1;HPM_P2
2022/11/08 00:15:59;;;;;;;11.98;5.28;;;;;;;11.45;85.84;100022.69;10525615;28;20289;-73
2022/11/08 00:21:02;;;;;;;7.43;5.15;;;;;;;11.43;86.27;100032.63;10561988;28;20040;-73
2022/11/08 00:26:03;;;;;;;6.20;4.80;;;;;;;11.36;86.33;100030.63;10540713;28;20051;-73
2022/11/08 00:31:05;;;;;;;10.60;5.55;;;;;;;11.32;86.64;100027.41;10535515;28;20046;-73
2022/11/08 00:36:07;;;;;;;9.30;4.88;;;;;;;11.26;86.29;100018.13;10567560;28;20044;-70
2022/11/08 00:41:09;;;;;;;7.38;4.78;;;;;;;11.19;86.59;100019.63;10564766;28;20097;-72
2022/11/08 00:46:10;;;;;;;7.60;5.07;;;;;;;11.08;86.86;100020.56;10541857;28;20044;-72
2022/11/08 00:51:12;;;;;;;7.82;4.65;;;;;;;11.05;87.15;100022.63;10528660;28;20056;-72
2022/11/08 00:56:13;;;;;;;8.60;5.65;;;;;;;11.01;86.95;100021.22;10549788;28;20044;-74
2022/11/08 01:01:17;;;;;;;7.32;4.60;;;;;;;10.92;87.60;100021.03;10567486;28;20111;-74
2022/11/08 01:06:20;;;;;;;9.47;5.37;;;;;;;10.89;87.30;100012.47;10523904;28;21179;-70
2022/11/08 01:11:24;;;;;;;9.33;5.70;;;;;;;10.82;87.83;100011.31;10526161;28;20051;-72
2022/11/08 01:16:29;;;;;;;7.72;4.38;;;;;;;10.76;88.31;100008.19;10529878;28;20055;-71
2022/11/08 01:21:30;;;;;;;7.03;4.22;;;;;;;10.87;87.69;100015.25;10529556;27;20071;-71
2022/11/08 01:26:32;;;;;;;10.35;4.43;;;;;;;10.84;87.62;100004.88;10527339;27;20078;-70
2022/11/08 01:31:33;;;;;;;6.57;4.10;;;;;;;10.80;87.99;100000.78;10530476;28;20170;-71
2022/11/08 01:36:35;;;;;;;7.43;4.63;;;;;;;10.82;87.67;100001.50;10523784;28;20056;-73
2022/11/08 01:41:37;;;;;;;7.03;3.88;;;;;;;10.83;87.19;99992.53;10523131;28;20052;-72
2022/11/08 01:46:41;;;;;;;7.95;4.68;;;;;;;10.68;87.78;99988.53;10512175;27;20048;-71
2022/11/08 01:51:53;;;;;;;4.32;3.92;;;;;;;10.68;87.71;99980.53;10521525;28;20048;-73
2022/11/08 01:56:56;;;;;;;6.40;3.92;;;;;;;10.58;88.25;99967.16;10525469;28;20052;-71
2022/11/08 02:01:58;;;;;;;8.63;3.92;;;;;;;10.57;88.81;99970.81;10525377;27;20044;-72
2022/11/08 02:07:01;;;;;;;7.07;4.13;;;;;;;10.48;88.63;99972.44;10523526;28;20050;-71
2022/11/08 02:12:03;;;;;;;6.30;4.03;;;;;;;10.47;88.67;99965.41;10521805;28;20051;-71
2022/11/08 02:17:06;;;;;;;7.22;3.90;;;;;;;10.52;88.72;99963.19;10537297;28;20047;-73
2022/11/08 02:22:15;;;;;;;6.10;3.38;;;;;;;10.43;88.43;99970.16;10555905;28;20050;-71
2022/11/08 02:27:17;;;;;;;6.25;3.45;;;;;;;10.48;89.04;99955.59;10515205;28;20039;-72
2022/11/08 02:32:18;;;;;;;8.07;4.00;;;;;;;10.42;88.89;99957.81;10518200;28;20044;-70
2022/11/08 02:37:20;;;;;;;5.45;3.70;;;;;;;10.40;89.17;99964.25;10527078;28;20059;-70
2022/11/08 02:42:22;;;;;;;6.00;3.92;;;;;;;10.39;89.20;99954.59;10522531;28;20040;-71
2022/11/08 02:47:23;;;;;;;6.35;3.88;;;;;;;10.32;89.23;99942.75;10527337;28;20047;-70
2022/11/08 02:52:24;;;;;;;6.85;3.78;;;;;;;10.21;89.67;99941.81;10542453;28;20055;-74
2022/11/08 02:57:25;;;;;;;6.57;3.80;;;;;;;10.21;90.04;99939.16;10545052;28;20060;-70
2022/11/08 03:02:27;;;;;;;5.25;3.70;;;;;;;10.15;90.41;99933.50;10522963;28;20055;-70
2022/11/08 03:07:28;;;;;;;9.50;4.03;;;;;;;10.12;90.19;99934.63;10526551;27;20051;-71
2022/11/08 03:12:29;;;;;;;5.35;4.00;;;;;;;10.04;90.46;99927.28;10523499;28;20145;-70
2022/11/08 03:17:31;;;;;;;4.88;4.05;;;;;;;10.06;90.15;99921.84;10510706;28;20043;-71
2022/11/08 03:22:32;;;;;;;6.85;4.38;;;;;;;10.02;90.54;99915.09;10523710;28;20052;-70
2022/11/08 03:27:34;;;;;;;7.25;3.95;;;;;;;10.08;90.87;99919.88;10509855;28;20843;-70
2022/11/08 03:32:35;;;;;;;5.72;3.55;;;;;;;10.04;90.91;99910.47;10524718;28;20132;-72
2022/11/08 03:37:36;;;;;;;5.10;3.35;;;;;;;9.99;90.63;99897.56;10520876;28;20051;-71
2022/11/08 03:42:38;;;;;;;6.97;3.22;;;;;;;9.98;91.08;99895.03;10520449;28;20048;-72
2022/11/08 03:47:41;;;;;;;6.07;3.40;;;;;;;9.89;91.62;99902.81;10528595;28;20083;-74
2022/11/08 03:52:46;;;;;;;4.20;3.63;;;;;;;9.85;91.55;99889.91;10523230;28;20048;-70
2022/11/08 03:57:48;;;;;;;8.80;3.67;;;;;;;9.89;91.77;99889.53;10500299;28;20051;-72
2022/11/08 04:02:51;;;;;;;5.63;3.88;;;;;;;9.93;91.32;99881.28;10526983;28;20052;-71
2022/11/08 04:07:52;;;;;;;6.35;3.25;;;;;;;9.96;90.49;99881.88;10522147;28;20163;-72
2022/11/08 04:23:35;;;;;;;5.97;3.75;;;;;;;9.82;91.66;99864.41;10525197;28;20650;-72
2022/11/08 04:28:38;;;;;;;6.78;3.17;;;;;;;9.77;91.89;99861.28;10521817;28;20048;-71
2022/11/08 04:33:40;;;;;;;6.18;4.00;;;;;;;9.72;91.64;99847.53;10517387;27;20052;-70
2022/11/08 04:38:42;;;;;;;5.32;3.50;;;;;;;9.69;91.62;99847.81;10520127;28;20142;-71
2022/11/08 04:43:43;;;;;;;5.75;3.42;;;;;;;9.60;91.15;99837.94;10527972;28;20048;-75
2022/11/08 04:48:45;;;;;;;6.68;3.47;;;;;;;9.63;90.88;99837.69;10559128;28;20044;-71
2022/11/08 04:53:46;;;;;;;6.55;3.85;;;;;;;9.58;90.36;99829.25;10530671;27;20055;-70
2022/11/08 04:58:50;;;;;;;5.47;3.75;;;;;;;9.49;90.46;99834.34;10531061;27;20052;-71
2022/11/08 05:03:52;;;;;;;4.13;3.15;;;;;;;9.49;90.95;99834.34;10533051;27;20461;-70
2022/11/08 05:08:55;;;;;;;5.88;3.55;;;;;;;9.47;90.64;99833.66;10534887;28;20051;-73
2022/11/08 05:13:57;;;;;;;4.40;3.60;;;;;;;9.50;90.21;99833.41;10525221;27;20050;-70
2022/11/08 05:18:58;;;;;;;7.15;3.50;;;;;;;9.45;90.51;99821.47;10518487;28;20059;-71
2022/11/08 05:24:01;;;;;;;4.20;2.70;;;;;;;9.36;90.71;99807.94;10531533;28;20044;-75
2022/11/08 05:29:04;;;;;;;5.53;3.38;;;;;;;9.30;90.89;99810.28;10544649;28;20788;-72
2022/11/08 05:34:06;;;;;;;6.63;3.95;;;;;;;9.30;90.97;99815.59;10540658;27;20047;-72
2022/11/08 05:39:07;;;;;;;6.10;3.33;;;;;;;9.26;91.34;99803.53;10539108;28;20047;-70
2022/11/08 05:44:09;;;;;;;8.15;4.38;;;;;;;9.22;91.10;99799.44;10574624;27;20539;-72
2022/11/08 05:49:10;;;;;;;5.53;3.95;;;;;;;9.18;90.99;99794.38;10567044;28;20166;-71
2022/11/08 05:54:12;;;;;;;6.05;3.90;;;;;;;9.10;91.12;99788.84;10565291;28;20047;-72
2022/11/08 05:59:13;;;;;;;7.05;4.13;;;;;;;9.13;91.07;99788.59;10565977;27;20082;-71
2022/11/08 06:04:14;;;;;;;7.75;5.13;;;;;;;9.13;90.88;99783.28;10548465;27;20123;-71
2022/11/08 06:09:15;;;;;;;6.90;5.15;;;;;;;9.16;90.94;99798.97;10575311;28;20058;-74
2022/11/08 06:14:17;;;;;;;6.00;4.53;;;;;;;9.15;90.63;99797.28;10568360;28;20070;-72
2022/11/08 06:19:18;;;;;;;6.10;4.10;;;;;;;9.06;90.60;99790.06;10503031;28;20060;-70
2022/11/08 06:24:19;;;;;;;8.45;5.25;;;;;;;9.06;90.84;99803.34;10514659;28;20043;-75
2022/11/08 06:29:20;;;;;;;7.75;4.28;;;;;;;9.14;90.34;99806.22;10504767;28;20062;-70
2022/11/08 06:34:22;;;;;;;6.78;4.07;;;;;;;9.18;89.53;99806.81;10516500;28;20054;-69
2022/11/08 06:39:23;;;;;;;4.90;3.83;;;;;;;9.23;89.54;99803.78;10510319;28;20131;-72
2022/11/08 06:44:25;;;;;;;5.35;3.97;;;;;;;9.20;90.02;99805.72;10508201;28;20044;-74
2022/11/08 06:49:26;;;;;;;6.03;4.28;;;;;;;9.29;89.23;99797.97;10486765;28;20052;-70
2022/11/08 06:54:29;;;;;;;9.32;5.05;;;;;;;9.27;89.30;99805.22;10487258;28;20052;-73
2022/11/08 06:59:31;;;;;;;9.35;5.07;;;;;;;9.35;89.09;99813.38;10513705;28;20048;-72
2022/11/08 07:04:33;;;;;;;9.55;6.32;;;;;;;9.34;88.50;99806.41;10507048;28;20307;-72
2022/11/08 07:09:34;;;;;;;9.93;6.43;;;;;;;9.32;88.56;99803.03;10514179;28;20062;-72
2022/11/08 07:14:36;;;;;;;9.55;5.82;;;;;;;9.47;88.05;99817.72;10512867;27;20054;-72
2022/11/08 07:19:37;;;;;;;9.10;5.55;;;;;;;9.46;87.52;99810.69;10523604;28;20051;-73
2022/11/08 07:24:38;;;;;;;7.18;5.15;;;;;;;9.61;87.01;99810.38;10501746;28;20062;-72
2022/11/08 07:29:40;;;;;;;7.35;4.60;;;;;;;9.66;86.83;99816.16;10520873;28;20953;-73
2022/11/08 07:34:41;;;;;;;7.95;5.43;;;;;;;10.02;85.50;99824.66;10497530;28;20048;-72
2022/11/08 07:39:42;;;;;;;9.40;5.30;;;;;;;10.06;84.57;99834.09;10511157;28;20054;-72
2022/11/08 07:44:44;;;;;;;10.57;5.32;;;;;;;10.07;83.49;99836.63;10512289;28;20051;-71
2022/11/08 07:49:45;;;;;;;7.63;5.20;;;;;;;10.09;83.48;99839.97;10514334;28;20172;-75
2022/11/08 07:54:46;;;;;;;10.10;5.60;;;;;;;10.38;82.76;99843.81;10496317;28;20058;-72
2022/11/08 07:59:48;;;;;;;9.32;5.32;;;;;;;10.55;81.87;99835.22;10510667;28;20752;-71
2022/11/08 08:04:49;;;;;;;9.63;5.55;;;;;;;10.48;82.00;99850.03;10492197;28;20051;-73
2022/11/08 08:09:50;;;;;;;11.35;5.70;;;;;;;10.41;82.58;99840.88;10497690;28;20058;-72
2022/11/08 08:14:51;;;;;;;11.65;7.45;;;;;;;10.43;82.65;99847.75;10524793;28;20108;-73
2022/11/08 08:19:53;;;;;;;10.88;6.32;;;;;;;10.48;83.19;99847.38;10536619;28;20052;-73
2022/11/08 08:24:54;;;;;;;12.52;6.40;;;;;;;10.47;83.48;99845.66;10532609;28;20051;-73
2022/11/08 08:30:02;;;;;;;8.55;6.53;;;;;;;10.45;83.94;99850.28;10557598;28;20056;-73
2022/11/08 08:35:04;;;;;;;12.13;7.32;;;;;;;10.48;84.05;99850.03;10560091;28;20048;-72
2022/11/08 08:40:06;;;;;;;11.93;7.07;;;;;;;10.72;83.24;99841.72;10530142;28;20043;-72
2022/11/08 08:45:09;;;;;;;14.65;7.57;;;;;;;11.11;81.71;99838.34;10535000;27;20046;-73
2022/11/08 08:50:15;;;;;;;11.20;6.15;;;;;;;11.21;81.21;99841.00;10551746;27;20353;-72
2022/11/08 08:55:16;;;;;;;14.90;7.50;;;;;;;11.24;81.25;99838.88;10564048;28;20130;-74
2022/11/08 09:00:18;;;;;;;13.80;7.50;;;;;;;11.22;81.32;99832.88;10532192;28;20051;-74
2022/11/08 09:05:45;;;;;;;10.70;6.65;;;;;;;11.43;80.40;99842.56;10518435;28;20161;-73
2022/11/08 09:10:52;;;;;;;11.82;8.52;;;;;;;11.58;79.71;99843.84;10515190;27;20453;-72
2022/11/08 09:15:54;;;;;;;13.48;10.48;;;;;;;11.68;79.28;99858.00;10511451;28;20060;-74
2022/11/08 09:20:56;;;;;;;11.13;7.53;;;;;;;11.77;78.65;99860.81;10521612;28;20051;-73
2022/11/08 09:25:59;;;;;;;9.20;7.40;;;;;;;11.82;78.29;99858.56;10503764;28;20044;-74
2022/11/08 09:31:09;;;;;;;13.18;7.63;;;;;;;12.10;76.52;99853.38;10510894;28;20453;-74
2022/11/08 09:36:12;;;;;;;14.38;7.60;;;;;;;12.87;73.28;99841.59;10517038;28;20043;-73
2022/11/08 09:41:30;;;;;;;14.30;7.63;;;;;;;14.68;66.42;99847.66;10498881;28;20138;-71
2022/11/08 09:46:46;;;;;;;13.02;7.88;;;;;;;17.50;56.23;99842.78;10514291;28;20545;-71
2022/11/08 09:51:48;;;;;;;12.65;6.15;;;;;;;18.42;52.06;99832.91;10487197;27;20357;-73
2022/11/08 09:56:51;;;;;;;10.77;5.90;;;;;;;18.58;51.12;99824.66;10488547;28;20055;-72
2022/11/08 10:01:52;;;;;;;13.18;5.30;;;;;;;17.92;52.11;99835.25;10514480;28;20337;-69
2022/11/08 10:07:18;;;;;;;11.55;5.20;;;;;;;18.01;52.66;99832.31;10489821;28;21358;-73
2022/11/08 10:12:41;;;;;;;6.95;4.00;;;;;;;19.66;47.43;99819.47;10483961;27;20528;-73
2022/11/08 10:18:26;;;;;;;9.23;4.15;;;;;;;19.71;46.70;99800.84;10502000;27;20055;-70
2022/11/08 10:23:46;;;;;;;;;;;;;;;23.61;38.27;99796.47;10504926;27;20039;-71
2022/11/08 10:29:00;;;;;;;10.68;4.00;;;;;;;26.59;32.72;99789.44;10490095;28;20574;-73
2022/11/08 10:34:10;;;;;;;4.60;2.67;;;;;;;27.73;30.63;99782.34;10495273;28;21065;-75
2022/11/08 10:39:36;;;;;;;10.23;3.55;;;;;;;28.77;28.61;99781.94;10515823;28;20048;-75
2022/11/08 10:44:39;;;;;;;9.48;2.90;;;;;;;30.10;26.36;99785.13;10485439;28;22690;-74
2022/11/08 10:49:42;;;;;;;4.53;1.85;;;;;;;30.90;25.90;99786.94;10502295;28;20059;-74
2022/11/08 10:54:55;;;;;;;4.28;2.00;;;;;;;31.79;24.33;99786.81;10480786;28;20047;-74
2022/11/08 11:00:22;;;;;;;2.30;1.55;;;;;;;32.43;22.82;99775.16;10478610;28;20047;-74
2022/11/08 11:05:36;;;;;;;4.60;1.63;;;;;;;32.13;22.77;99776.06;10494790;28;20051;-72
2022/11/08 11:10:43;;;;;;;2.17;1.55;;;;;;;32.81;22.98;99779.44;10492614;28;21166;-74
2022/11/08 11:16:03;;;;;;;3.58;1.88;;;;;;;33.14;21.80;99769.59;10479849;28;20054;-74
2022/11/08 11:21:08;;;;;;;2.03;1.20;;;;;;;28.30;27.24;99758.56;10498296;28;20058;-72
2022/11/08 11:26:19;;;;;;;2.75;1.40;;;;;;;25.15;32.33;99755.97;10479346;28;20130;-75
2022/11/08 11:31:20;;;;;;;4.18;1.60;;;;;;;22.69;35.77;99750.63;10482573;28;20188;-73
2022/11/08 11:36:26;;;;;;;2.33;1.50;;;;;;;21.30;38.48;99749.72;10477290;28;20054;-72
2022/11/08 11:41:36;;;;;;;2.70;1.40;;;;;;;20.14;41.18;99741.34;10499816;28;20460;-72
2022/11/08 11:46:57;;;;;;;4.20;1.70;;;;;;;19.69;42.13;99742.66;10494975;28;20047;-72
2022/11/08 11:51:58;;;;;;;4.82;1.77;;;;;;;19.32;43.44;99721.19;10480930;28;20059;-70
2022/11/08 11:57:09;;;;;;;3.13;1.75;;;;;;;19.38;43.61;99731.22;10479525;28;20510;-73
2022/11/08 12:02:32;;;;;;;2.72;1.30;;;;;;;19.07;44.50;99723.44;10494225;28;20051;-69
2022/11/08 12:07:42;;;;;;;2.83;1.60;;;;;;;18.95;46.25;99720.41;10478581;28;20162;-69
2022/11/08 12:13:10;;;;;;;1.50;1.25;;;;;;;19.29;45.40;99716.19;10483537;28;20055;-68
2022/11/08 12:18:58;;;;;;;2.40;1.42;;;;;;;19.91;44.16;99716.50;10496633;28;20047;-75
2022/11/08 12:24:00;;;;;;;3.78;1.63;;;;;;;19.89;44.73;99723.94;10496623;28;20043;-71
2022/11/08 12:29:20;;;;;;;6.65;1.80;;;;;;;19.95;44.00;99709.63;10503888;28;20051;-71
2022/11/08 12:34:43;;;;;;;3.30;1.58;;;;;;;19.59;45.00;99705.19;10497075;28;20054;-71
2022/11/08 12:39:49;;;;;;;4.30;1.60;;;;;;;19.04;44.65;99707.66;10493941;28;20051;-71
2022/11/08 12:45:28;;;;;;;2.10;1.50;;;;;;;18.54;46.02;99702.91;10476372;28;20055;-71
2022/11/08 12:50:56;;;;;;;3.55;1.75;;;;;;;19.00;45.75;99691.00;10499350;28;20070;-71
2022/11/08 12:56:04;;;;;;;4.35;1.70;;;;;;;19.70;44.81;99693.88;10503846;28;20142;-71
2022/11/08 13:01:10;;;;;;;1.90;1.23;;;;;;;21.06;41.28;99684.31;10502960;28;20055;-70
2022/11/08 13:06:17;;;;;;;2.28;1.30;;;;;;;20.75;42.16;99674.91;10500483;28;20048;-70
2022/11/08 13:11:30;;;;;;;2.80;1.30;;;;;;;23.90;35.61;99660.19;10498983;27;20043;-73
2022/11/08 13:16:37;;;;;;;;;;;;;;;25.88;32.67;99661.31;10506315;28;20044;-74
2022/11/08 13:21:40;;;;;;;2.38;1.10;;;;;;;24.78;32.69;99656.19;10488876;28;19924;-74
2022/11/08 13:26:43;;;;;;;2.55;1.30;;;;;;;24.29;34.07;99645.31;10501757;28;20052;-71
2022/11/08 13:31:54;;;;;;;1.95;0.73;;;;;;;22.18;36.82;99651.94;10485220;27;20059;-71
2022/11/08 13:37:06;;;;;;;2.28;1.10;;;;;;;20.05;40.62;99648.00;10484776;27;20047;-71
2022/11/08 13:42:16;;;;;;;3.30;1.30;;;;;;;19.19;42.46;99659.03;10498096;28;20048;-71
2022/11/08 13:47:33;;;;;;;2.90;1.13;;;;;;;18.88;44.48;99654.78;10497751;27;20056;-72
2022/11/08 13:53:00;;;;;;;1.45;1.00;;;;;;;18.75;43.88;99649.22;10489018;27;20054;-72
2022/11/08 13:58:02;;;;;;;3.10;1.67;;;;;;;18.51;46.26;99652.09;10501590;28;20494;-70
2022/11/08 14:03:32;;;;;;;4.35;1.40;;;;;;;18.13;46.34;99656.81;10498776;28;20059;-71
2022/11/08 14:09:02;;;;;;;2.55;1.40;;;;;;;18.10;46.76;99662.56;10504760;28;20052;-71
2022/11/08 14:14:22;;;;;;;2.55;1.80;;;;;;;18.10;46.66;99659.88;10482620;28;20517;-71
2022/11/08 14:19:26;;;;;;;2.63;1.95;;;;;;;18.62;44.92;99652.63;10500690;27;20415;-71
2022/11/08 14:24:32;;;;;;;2.80;1.38;;;;;;;18.08;46.05;99648.47;10498330;28;20042;-70
2022/11/08 14:29:33;;;;;;;4.22;1.23;;;;;;;17.84;46.64;99650.38;10497079;28;20063;-71
2022/11/08 14:34:36;;;;;;;3.00;1.30;;;;;;;17.87;46.76;99647.31;10483543;28;20744;-70
2022/11/08 14:39:38;;;;;;;2.70;1.63;;;;;;;17.32;47.94;99652.06;10499442;28;20054;-73
2022/11/08 14:44:42;;;;;;;1.48;1.33;;;;;;;16.94;49.44;99636.75;10497500;28;20047;-72
2022/11/08 14:49:46;;;;;;;2.58;1.40;;;;;;;16.53;49.84;99634.34;10492358;28;20051;-73
2022/11/08 14:54:56;;;;;;;2.67;1.10;;;;;;;16.41;50.07;99627.69;10497831;28;20055;-72
2022/11/08 15:00:02;;;;;;;5.28;1.45;;;;;;;16.29;50.83;99631.78;10482048;28;20046;-71
2022/11/08 15:05:04;;;;;;;3.33;1.70;;;;;;;16.18;51.35;99625.81;10497987;27;21347;-71
2022/11/08 15:10:09;;;;;;;2.40;1.48;;;;;;;16.11;52.01;99624.81;10498006;27;20043;-71
2022/11/08 15:15:23;;;;;;;3.35;1.77;;;;;;;15.97;52.20;99621.00;10493720;28;20799;-71
2022/11/08 15:20:25;;;;;;;3.17;1.63;;;;;;;15.87;52.09;99629.28;10495479;28;20050;-70
2022/11/08 15:25:33;;;;;;;3.78;2.33;;;;;;;15.77;52.95;99617.88;10493561;28;20052;-72
2022/11/08 15:30:41;;;;;;;4.25;2.00;;;;;;;15.68;53.11;99629.63;10499672;28;20058;-74
2022/11/08 15:35:45;;;;;;;4.95;4.28;;;;;;;15.60;54.02;99616.22;10494347;28;20448;-71
2022/11/08 15:40:53;;;;;;;6.97;2.50;;;;;;;15.52;53.90;99614.41;10494472;28;20043;-72
2022/11/08 15:45:55;;;;;;;3.97;2.33;;;;;;;15.49;53.84;99601.34;10493148;28;20060;-70
2022/11/08 15:50:56;;;;;;;3.45;2.13;;;;;;;15.43;54.40;99608.22;10495582;28;20502;-71
2022/11/08 15:56:00;;;;;;;5.63;2.50;;;;;;;15.37;54.39;99608.91;10513788;28;20492;-71
2022/11/08 16:01:03;;;;;;;4.27;3.40;;;;;;;15.31;54.72;99602.41;10492342;28;20428;-72
2022/11/08 16:06:05;;;;;;;5.65;3.33;;;;;;;15.25;55.13;99612.97;10494906;28;20378;-72
2022/11/08 16:11:18;;;;;;;6.25;2.85;;;;;;;15.20;55.82;99614.28;10479068;28;20055;-70
2022/11/08 16:16:19;;;;;;;5.55;2.83;;;;;;;15.22;56.30;99622.16;10495810;28;20051;-73
2022/11/08 16:21:21;;;;;;;5.63;3.08;;;;;;;15.16;57.00;99629.06;10501244;28;20044;-76
2022/11/08 16:26:22;;;;;;;4.40;3.13;;;;;;;15.13;56.64;99616.00;10491403;28;20058;-75
2022/11/08 16:31:24;;;;;;;7.82;4.07;;;;;;;15.06;56.19;99617.69;10519754;28;20542;-75
2022/11/08 16:36:28;;;;;;;4.07;3.00;;;;;;;15.05;55.54;99624.03;10516980;28;20220;-76
2022/11/08 16:41:30;;;;;;;5.53;2.45;;;;;;;15.03;55.78;99610.78;10496352;28;20063;-70
2022/11/08 16:46:31;;;;;;;5.70;2.42;;;;;;;15.00;55.29;99599.59;10512622;28;20044;-73
2022/11/08 16:51:32;;;;;;;4.68;2.30;;;;;;;15.03;56.37;99594.72;10509753;28;20048;-74
2022/11/08 16:56:34;;;;;;;3.72;3.00;;;;;;;15.01;57.87;99590.53;10515324;28;20055;-74
2022/11/08 17:01:36;;;;;;;4.55;2.85;;;;;;;14.97;57.43;99597.25;10503800;28;20866;-75
2022/11/08 17:06:37;;;;;;;5.25;3.47;;;;;;;14.88;59.48;99591.03;10499291;27;20044;-78
2022/11/08 17:11:39;;;;;;;6.22;4.15;;;;;;;14.79;60.63;99600.09;10505025;27;20062;-74
2022/11/08 17:16:41;;;;;;;6.90;4.78;;;;;;;14.70;60.53;99601.06;10492073;28;20126;-74
2022/11/08 17:21:42;;;;;;;5.60;4.97;;;;;;;14.69;61.47;99602.91;10493050;28;20048;-76
2022/11/08 17:26:46;;;;;;;5.90;4.55;;;;;;;14.64;61.63;99605.28;10489427;28;20047;-76
2022/11/08 17:31:47;;;;;;;6.47;5.28;;;;;;;14.60;61.11;99610.06;10507137;28;20702;-72
2022/11/08 17:36:51;;;;;;;6.75;5.70;;;;;;;14.57;61.23;99609.56;10489011;28;20047;-75
2022/11/08 17:41:53;;;;;;;6.78;6.00;;;;;;;14.57;61.56;99620.28;10492915;28;20134;-75
2022/11/08 17:46:54;;;;;;;10.20;8.48;;;;;;;14.53;62.06;99624.28;10509019;28;20063;-77
2022/11/08 17:51:56;;;;;;;6.60;5.88;;;;;;;14.47;62.57;99615.06;10504219;28;20134;-75
2022/11/08 17:56:57;;;;;;;7.57;5.93;;;;;;;14.42;63.02;99607.53;10511983;28;20048;-71
2022/11/08 18:01:58;;;;;;;6.82;6.10;;;;;;;14.41;63.13;99605.88;10506737;28;20727;-73
2022/11/08 18:07:00;;;;;;;7.75;5.47;;;;;;;14.43;63.36;99619.09;10496812;28;20047;-77
2022/11/08 18:12:01;;;;;;;8.10;4.85;;;;;;;14.36;62.07;99624.25;10541279;28;20048;-74
2022/11/08 18:17:03;;;;;;;8.38;4.50;;;;;;;14.31;63.00;99627.41;10515062;27;20054;-75
2022/11/08 18:22:05;;;;;;;10.05;4.63;;;;;;;14.30;63.62;99622.22;10541423;28;20047;-75
2022/11/08 18:27:06;;;;;;;5.13;3.90;;;;;;;14.22;64.33;99624.91;10512096;28;20051;-74
2022/11/08 18:32:08;;;;;;;7.93;4.15;;;;;;;14.23;63.81;99615.84;10488981;28;20054;-75
2022/11/08 18:37:09;;;;;;;6.07;4.25;;;;;;;14.21;64.03;99615.19;10507874;28;20048;-74
2022/11/08 18:42:10;;;;;;;8.05;4.45;;;;;;;14.19;63.56;99618.03;10509893;28;20306;-75
2022/11/08 18:47:12;;;;;;;8.60;4.85;;;;;;;14.09;63.43;99626.16;10509176;28;20044;-74
2022/11/08 18:52:14;;;;;;;9.00;5.78;;;;;;;14.06;63.45;99631.84;10523665;27;20058;-78
2022/11/08 18:57:15;;;;;;;7.35;5.75;;;;;;;13.99;63.61;99601.41;10523748;28;20058;-75
2022/11/08 19:02:16;;;;;;;9.73;5.63;;;;;;;13.98;63.90;99610.41;10509980;28;20048;-73
2022/11/08 19:07:18;;;;;;;6.50;5.80;;;;;;;14.04;65.22;99612.44;10501407;28;20071;-75
2022/11/08 19:12:20;;;;;;;8.07;5.88;;;;;;;14.04;64.95;99616.97;10501350;27;20086;-76
2022/11/08 19:17:21;;;;;;;7.50;4.20;;;;;;;13.96;64.62;99602.56;10484171;28;20609;-75
2022/11/08 19:22:23;;;;;;;12.13;5.43;;;;;;;13.95;64.97;99608.06;10504495;27;20052;-75
2022/11/08 19:27:24;;;;;;;8.80;5.70;;;;;;;14.02;65.53;99616.28;10485899;28;20055;-75
2022/11/08 19:32:25;;;;;;;7.18;5.53;;;;;;;14.01;64.58;99615.44;10502304;28;20055;-76
2022/11/08 19:37:27;;;;;;;7.00;5.93;;;;;;;14.01;65.20;99630.69;10532054;28;20055;-77
2022/11/08 19:42:28;;;;;;;6.68;5.10;;;;;;;13.99;65.06;99622.81;10492308;28;20193;-74
2022/11/08 19:47:29;;;;;;;7.63;5.30;;;;;;;13.93;65.13;99607.38;10504818;28;20062;-75
2022/11/08 19:52:31;;;;;;;7.10;5.63;;;;;;;13.93;65.57;99612.72;10513632;28;20044;-76
2022/11/08 19:57:33;;;;;;;7.43;5.97;;;;;;;13.86;64.11;99593.81;10542152;28;20052;-74
2022/11/08 20:02:36;;;;;;;6.72;5.05;;;;;;;13.85;64.61;99596.66;10491569;28;20055;-74
2022/11/08 20:07:43;;;;;;;5.97;5.38;;;;;;;13.74;65.08;99597.78;10489376;28;20055;-77
2022/11/08 20:12:44;;;;;;;6.72;5.53;;;;;;;13.69;64.76;99605.44;10506520;28;20048;-74
2022/11/08 20:17:46;;;;;;;6.18;5.35;;;;;;;13.70;66.20;99605.28;10481090;28;20052;-75
2022/11/08 20:22:47;;;;;;;6.43;5.30;;;;;;;13.68;65.89;99612.63;10487463;28;20074;-76
2022/11/08 20:27:49;;;;;;;7.05;5.50;;;;;;;13.69;66.06;99610.78;10486711;28;20059;-75
2022/11/08 20:32:50;;;;;;;9.77;6.40;;;;;;;13.71;66.37;99624.84;10490595;28;20805;-77
2022/11/08 20:37:55;;;;;;;8.23;6.85;;;;;;;13.84;66.20;99635.09;10508581;28;20048;-73
2022/11/08 20:42:57;;;;;;;7.13;6.38;;;;;;;13.78;66.30;99625.88;10491823;28;20599;-74
2022/11/08 20:47:58;;;;;;;8.93;6.95;;;;;;;13.73;66.78;99629.03;10515679;28;20629;-74
2022/11/08 20:53:03;;;;;;;10.15;6.35;;;;;;;13.69;65.88;99621.47;10518505;28;20073;-74
2022/11/08 20:58:04;;;;;;;7.97;6.32;;;;;;;13.66;65.45;99613.78;10540611;28;20163;-75
2022/11/08 21:03:05;;;;;;;9.23;7.00;;;;;;;13.71;65.74;99620.31;10535899;28;20127;-76
2022/11/08 21:08:07;;;;;;;9.40;8.40;;;;;;;13.71;65.88;99627.53;10552433;28;20062;-78
2022/11/08 21:13:30;;;;;;;19.27;12.63;;;;;;;13.75;66.55;99635.06;10547629;28;20225;-74
2022/11/08 21:18:34;;;;;;;13.43;10.65;;;;;;;13.79;68.59;99646.28;10523003;28;20052;-73
2022/11/08 21:23:37;;;;;;;13.47;10.93;;;;;;;13.79;70.58;99648.94;10515070;28;20066;-74
2022/11/08 21:28:39;;;;;;;11.07;8.77;;;;;;;13.73;72.12;99655.75;10513957;28;20052;-77
2022/11/08 21:33:40;;;;;;;10.25;8.20;;;;;;;13.77;73.67;99656.31;10493391;28;20059;-73
2022/11/08 21:38:42;;;;;;;10.18;7.28;;;;;;;13.74;74.09;99660.13;10489151;28;20059;-75
2022/11/08 21:43:43;;;;;;;11.27;7.43;;;;;;;13.71;74.34;99657.78;10507265;28;20059;-73
2022/11/08 21:48:45;;;;;;;10.20;5.82;;;;;;;13.81;72.57;99660.34;10494167;28;20051;-74
2022/11/08 21:53:50;;;;;;;7.68;6.47;;;;;;;13.83;71.63;99662.88;10506803;28;20040;-75
2022/11/08 21:58:56;;;;;;;8.25;6.15;;;;;;;13.84;73.92;99665.38;10493989;28;20092;-75
2022/11/08 22:03:58;;;;;;;8.88;6.38;;;;;;;13.85;74.71;99663.53;10477986;28;20438;-73
2022/11/08 22:08:59;;;;;;;8.85;6.40;;;;;;;13.88;74.68;99676.59;10507165;28;20051;-74
2022/11/08 22:14:01;;;;;;;8.15;5.75;;;;;;;13.88;74.56;99663.22;10511763;28;20047;-73
2022/11/08 22:19:02;;;;;;;7.95;6.18;;;;;;;13.91;74.69;99652.19;10527235;28;20052;-74
2022/11/08 22:24:11;;;;;;;10.15;6.60;;;;;;;13.89;74.49;99649.66;10525806;28;20050;-72
2022/11/08 22:29:13;;;;;;;7.78;6.13;;;;;;;13.91;74.95;99658.38;10513058;28;20048;-72
2022/11/08 22:34:15;;;;;;;8.43;5.85;;;;;;;13.90;73.06;99653.19;10527481;28;20490;-71
2022/11/08 22:39:18;;;;;;;7.85;5.85;;;;;;;13.90;75.06;99640.66;10513888;28;20040;-74
2022/11/08 22:44:20;;;;;;;9.93;5.70;;;;;;;13.89;74.33;99649.66;10525465;28;20897;-72
2022/11/08 22:49:21;;;;;;;4.30;3.90;;;;;;;13.92;72.91;99661.91;10530558;28;20172;-73
2022/11/08 22:54:22;;;;;;;5.38;4.22;;;;;;;13.90;72.95;99658.53;10525012;28;20046;-73
2022/11/08 22:59:24;;;;;;;4.47;4.07;;;;;;;13.89;71.71;99654.19;10525653;28;20465;-73
2022/11/08 23:04:25;;;;;;;4.88;4.15;;;;;;;13.92;71.92;99649.34;10524434;28;20051;-71
2022/11/08 23:09:26;;;;;;;6.00;3.67;;;;;;;13.94;71.66;99657.22;10520971;28;20048;-71
2022/11/08 23:25:08;;;;;;;6.43;4.05;;;;;;;13.88;73.58;99636.47;10529839;28;20707;-73
2022/11/08 23:35:32;;;;;;;6.53;3.67;;;;;;;13.86;73.67;99633.94;10522980;28;20413;-71
2022/11/08 23:45:55;;;;;;;5.30;4.18;;;;;;;13.79;74.90;99633.72;10508753;28;20048;-73
2022/11/08 23:50:57;;;;;;;6.45;4.88;;;;;;;13.76;75.34;99620.69;10525027;28;20545;-74
2022/11/08 23:55:58;;;;;;;5.13;4.57;;;;;;;13.76;75.97;99615.31;10524488;28;20050;-72
